地図

経路データ

SID SEASON NUMBER BASIN SUBBASIN NAME ISO_TIME NATURE LAT LON WMO_WIND WMO_PRES WMO_AGENCY TRACK_TYPE DIST2LAND LANDFALL IFLAG USA_AGENCY USA_ATCF_ID USA_LAT USA_LON USA_RECORD USA_STATUS USA_WIND USA_PRES USA_SSHS USA_R34_NE USA_R34_SE USA_R34_SW USA_R34_NW USA_R50_NE USA_R50_SE USA_R50_SW USA_R50_NW USA_R64_NE USA_R64_SE USA_R64_SW USA_R64_NW USA_POCI USA_ROCI USA_RMW USA_EYE TOKYO_LAT TOKYO_LON TOKYO_GRADE TOKYO_WIND TOKYO_PRES TOKYO_R50_DIR TOKYO_R50_LONG TOKYO_R50_SHORT TOKYO_R30_DIR TOKYO_R30_LONG TOKYO_R30_SHORT TOKYO_LAND CMA_LAT CMA_LON CMA_CAT CMA_WIND CMA_PRES HKO_LAT HKO_LON HKO_CAT HKO_WIND HKO_PRES NEWDELHI_LAT NEWDELHI_LON NEWDELHI_GRADE NEWDELHI_WIND NEWDELHI_PRES NEWDELHI_CI NEWDELHI_DP NEWDELHI_POCI REUNION_LAT REUNION_LON REUNION_TYPE REUNION_WIND REUNION_PRES REUNION_TNUM REUNION_CI REUNION_RMW REUNION_R34_NE REUNION_R34_SE REUNION_R34_SW REUNION_R34_NW REUNION_R50_NE REUNION_R50_SE REUNION_R50_SW REUNION_R50_NW REUNION_R64_NE REUNION_R64_SE REUNION_R64_SW REUNION_R64_NW BOM_LAT BOM_LON BOM_TYPE BOM_WIND BOM_PRES BOM_TNUM BOM_CI BOM_RMW BOM_R34_NE BOM_R34_SE BOM_R34_SW BOM_R34_NW BOM_R50_NE BOM_R50_SE BOM_R50_SW BOM_R50_NW BOM_R64_NE BOM_R64_SE BOM_R64_SW BOM_R64_NW BOM_ROCI BOM_POCI BOM_EYE BOM_POS_METHOD BOM_PRES_METHOD NADI_LAT NADI_LON NADI_CAT NADI_WIND NADI_PRES WELLINGTON_LAT WELLINGTON_LON WELLINGTON_WIND WELLINGTON_PRES DS824_LAT DS824_LON DS824_STAGE DS824_WIND DS824_PRES TD9636_LAT TD9636_LON TD9636_STAGE TD9636_WIND TD9636_PRES TD9635_LAT TD9635_LON TD9635_WIND TD9635_PRES TD9635_ROCI NEUMANN_LAT NEUMANN_LON NEUMANN_CLASS NEUMANN_WIND NEUMANN_PRES MLC_LAT MLC_LON MLC_CLASS MLC_WIND MLC_PRES USA_GUST BOM_GUST BOM_GUST_PER REUNION_GUST REUNION_GUST_PER USA_SEAHGT USA_SEARAD_NE USA_SEARAD_SE USA_SEARAD_SW USA_SEARAD_NW STORM_SPEED STORM_DIR
1926316N11281 1926 58 NA CS NOT_NAMED 1926-11-12 06:00:00 TS 11.2000 -79.2000 30 hurdat_atl main 190 190 O_____________ hurdat_atl AL111926 11.2000 -79.2000 TD 30 -1 4 316
1926316N11281 1926 58 NA CS NOT_NAMED 1926-11-12 09:00:00 TS 11.3500 -79.3525 main 212 212 P_____________ AL111926 11.3500 -79.3525 TD 30 -1 4 316
1926316N11281 1926 58 NA CS NOT_NAMED 1926-11-12 12:00:00 TS 11.5000 -79.5000 30 hurdat_atl main 224 224 O_____________ hurdat_atl AL111926 11.5000 -79.5000 TD 30 -1 4 317
1926316N11281 1926 58 NA CS NOT_NAMED 1926-11-12 15:00:00 TS 11.6500 -79.6425 main 235 235 P_____________ AL111926 11.6500 -79.6425 TD 30 -1 4 316
1926316N11281 1926 58 NA CS NOT_NAMED 1926-11-12 18:00:00 TS 11.8000 -79.8000 30 hurdat_atl main 257 257 O_____________ hurdat_atl AL111926 11.8000 -79.8000 TD 30 -1 5 310
1926316N11281 1926 58 NA CS NOT_NAMED 1926-11-12 21:00:00 TS 11.9425 -79.9925 main 270 270 P_____________ AL111926 11.9425 -79.9925 TD 32 -1 5 308
1926316N11281 1926 58 NA CS NOT_NAMED 1926-11-13 00:00:00 TS 12.1000 -80.2000 35 hurdat_atl main 296 296 O_____________ hurdat_atl AL111926 12.1000 -80.2000 TS 35 0 5 310
1926316N11281 1926 58 NA CS NOT_NAMED 1926-11-13 03:00:00 TS 12.2700 -80.3926 main 322 315 P_____________ AL111926 12.2700 -80.3926 TS 35 0 6 316
1926316N11281 1926 58 NA CS NOT_NAMED 1926-11-13 06:00:00 TS 12.5000 -80.6000 35 hurdat_atl main 315 292 O_____________ hurdat_atl AL111926 12.5000 -80.6000 TS 35 0 7 322
1926316N11281 1926 58 NA CS NOT_NAMED 1926-11-13 09:00:00 TS 12.8049 -80.8202 main 292 258 P_____________ AL111926 12.8049 -80.8202 TS 35 0 9 325
1926316N11281 1926 58 NA CS NOT_NAMED 1926-11-13 12:00:00 TS 13.2000 -81.1000 35 hurdat_atl main 258 209 O_____________ hurdat_atl AL111926 13.2000 -81.1000 TS 35 0 11 324
1926316N11281 1926 58 NA CS NOT_NAMED 1926-11-13 15:00:00 TS 13.6625 -81.4627 main 195 140 P_____________ AL111926 13.6625 -81.4627 TS 35 0 13 322
1926316N11281 1926 58 NA CS NOT_NAMED 1926-11-13 18:00:00 TS 14.2000 -81.9000 35 hurdat_atl main 140 88 O_____________ hurdat_atl AL111926 14.2000 -81.9000 TS 35 0 14 322
1926316N11281 1926 58 NA CS NOT_NAMED 1926-11-13 21:00:00 TS 14.7849 -82.3777 main 78 44 P_____________ AL111926 14.7849 -82.3777 TS 35 0 15 321
1926316N11281 1926 58 NA CS NOT_NAMED 1926-11-14 00:00:00 TS 15.4000 -82.9000 35 hurdat_atl main 49 46 O_____________ hurdat_atl AL111926 15.4000 -82.9000 TS 35 0 16 320
1926316N11281 1926 58 NA CS NOT_NAMED 1926-11-14 03:00:00 TS 16.0226 -83.4649 main 69 69 P_____________ AL111926 16.0226 -83.4649 TS 35 0 16 319
1926316N11281 1926 58 NA CS NOT_NAMED 1926-11-14 06:00:00 TS 16.6000 -84.0000 35 hurdat_atl main 95 95 O_____________ hurdat_atl AL111926 16.6000 -84.0000 TS 35 0 14 319
1926316N11281 1926 58 NA CS NOT_NAMED 1926-11-14 09:00:00 TS 17.0874 -84.4453 main 138 135 P_____________ AL111926 17.0874 -84.4453 TS 35 0 12 320
1926316N11281 1926 58 NA CS NOT_NAMED 1926-11-14 12:00:00 TS 17.5000 -84.8000 35 hurdat_atl main 179 179 O_____________ hurdat_atl AL111926 17.5000 -84.8000 TS 35 0 10 321
1926316N11281 1926 58 NA CS NOT_NAMED 1926-11-14 15:00:00 TS 17.8724 -85.1026 main 223 223 P_____________ AL111926 17.8724 -85.1026 TS 35 0 9 326
1926316N11281 1926 58 NA CS NOT_NAMED 1926-11-14 18:00:00 TS 18.2000 -85.3000 35 hurdat_atl main 254 234 O_____________ hurdat_atl AL111926 18.2000 -85.3000 TS 35 0 7 336
1926316N11281 1926 58 NA CS NOT_NAMED 1926-11-14 21:00:00 TS 18.5074 -85.3951 main 234 224 P_____________ AL111926 18.5074 -85.3951 TS 35 0 6 351
1926316N11281 1926 58 NA CS NOT_NAMED 1926-11-15 00:00:00 TS 18.8000 -85.4000 35 hurdat_atl main 224 214 O_____________ hurdat_atl AL111926 18.8000 -85.4000 TS 35 0 6 2
1926316N11281 1926 58 NA CS NOT_NAMED 1926-11-15 03:00:00 TS 19.0925 -85.3800 main 214 212 P_____________ AL111926 19.0925 -85.3800 TS 35 0 6 9
1926316N11281 1926 58 NA CS NOT_NAMED 1926-11-15 06:00:00 TS 19.4000 -85.3000 35 hurdat_atl main 220 214 O_____________ hurdat_atl AL111926 19.4000 -85.3000 TS 35 0 7 15
1926316N11281 1926 58 NA CS NOT_NAMED 1926-11-15 09:00:00 TS 19.7424 -85.1948 main 215 191 P_____________ AL111926 19.7424 -85.1948 TS 35 0 8 22
1926316N11281 1926 58 NA CS NOT_NAMED 1926-11-15 12:00:00 TS 20.1000 -85.0000 35 hurdat_atl main 191 156 O_____________ hurdat_atl AL111926 20.1000 -85.0000 TS 35 0 8 33
1926316N11281 1926 58 NA CS NOT_NAMED 1926-11-15 15:00:00 TS 20.4424 -84.7023 main 156 113 P_____________ AL111926 20.4424 -84.7023 TS 35 0 10 43
1926316N11281 1926 58 NA CS NOT_NAMED 1926-11-15 18:00:00 TS 20.8000 -84.3000 35 hurdat_atl main 113 78 O_____________ hurdat_atl AL111926 20.8000 -84.3000 TS 35 0 11 46
1926316N11281 1926 58 NA CS NOT_NAMED 1926-11-15 21:00:00 TS 21.1921 -83.8596 main 78 30 P_____________ AL111926 21.1921 -83.8596 TS 32 -1 12 49
1926316N11281 1926 58 NA CS NOT_NAMED 1926-11-16 00:00:00 TS 21.6000 -83.3000 30 hurdat_atl main 30 0 O_____________ hurdat_atl AL111926 21.6000 -83.3000 TD 30 -1 14 56
1926316N11281 1926 58 NA CS NOT_NAMED 1926-11-16 03:00:00 TS 22.0000 -82.5948 main 24 0 P_____________ AL111926 22.0000 -82.5948 TD 30 -1 16 60
1926316N11281 1926 58 NA NA NOT_NAMED 1926-11-16 06:00:00 TS 22.4000 -81.8000 30 hurdat_atl main 0 0 O_____________ hurdat_atl AL111926 22.4000 -81.8000 TD 30 -1 17 62
1926316N11281 1926 58 NA NA NOT_NAMED 1926-11-16 09:00:00 TS 22.8006 -80.9984 main 0 0 P_____________ AL111926 22.8006 -80.9984 TD 27 -1 17 62
1926316N11281 1926 58 NA NA NOT_NAMED 1926-11-16 12:00:00 ET 23.2000 -80.2000 25 hurdat_atl main 33 O_____________ hurdat_atl AL111926 23.2000 -80.2000 EX 25 -4 17 61

IBTrACS Databaseについて

本データベースは、米国NOAAが公開する1842年以降の世界の熱帯低気圧のベストトラックデータアーカイブInternational Best Track Archive for Climate Stewardship (IBTrACS)を、ウェブで閲覧しやすい形式に変換したものです。

最終更新日:2021-10-19